createdAt,value
2023-03-10T00:00:57.976Z,97060.97
2023-03-10T00:03:34.913Z,97058.28
2023-03-10T00:06:08.648Z,97057.31
2023-03-10T00:08:42.079Z,97060.16
2023-03-10T00:11:15.647Z,97068.78
2023-03-10T00:13:49.163Z,97069.81
2023-03-10T00:16:24.764Z,97060.97
2023-03-10T00:18:59.784Z,97071.78
2023-03-10T00:21:34.625Z,97068.63
2023-03-10T00:24:08.011Z,97069.81
2023-03-10T00:26:41.113Z,97071.34
2023-03-10T00:29:14.227Z,97052.59
2023-03-10T00:31:47.125Z,97055.84
2023-03-10T00:34:21.415Z,97058.13
2023-03-10T00:36:54.314Z,97059.13
2023-03-10T00:39:27.450Z,97057.78
2023-03-10T00:42:00.845Z,97042.94
2023-03-10T00:44:33.616Z,97039.06
2023-03-10T00:47:06.773Z,97034.72
2023-03-10T00:49:43.316Z,97032.31
2023-03-10T00:52:17.913Z,97030.84
2023-03-10T00:54:51.440Z,97013.72
2023-03-10T00:57:24.451Z,97013.22
2023-03-10T01:00:01.387Z,97003.25
2023-03-10T01:02:34.573Z,97005.34
2023-03-10T01:05:09.810Z,97010.28
2023-03-10T01:07:43.092Z,96996.41
2023-03-10T01:10:16.077Z,96997.75
2023-03-10T01:12:49.085Z,96983.03
2023-03-10T01:15:22.152Z,96987.38
2023-03-10T01:17:54.916Z,96976.41
2023-03-10T01:20:29.046Z,96973.44
2023-03-10T01:23:02.243Z,96960.72
2023-03-10T01:25:35.100Z,96969.38
2023-03-10T01:28:08.095Z,96960.91
2023-03-10T01:30:43.953Z,96961.88
2023-03-10T01:33:18.118Z,96958.50
2023-03-10T01:35:52.407Z,96964.56
2023-03-10T01:38:25.490Z,96950.63
2023-03-10T01:41:00.300Z,96941.09
2023-03-10T01:43:35.464Z,96941.66
2023-03-10T01:46:53.217Z,96933.56
2023-03-10T01:49:36.231Z,96933.56
2023-03-10T01:52:14.080Z,96934.28
2023-03-10T01:54:51.246Z,96930.81
2023-03-10T01:57:30.054Z,96921.69
2023-03-10T02:00:04.332Z,96917.13
2023-03-10T02:02:53.760Z,96915.91
2023-03-10T02:05:29.152Z,96906.88
2023-03-10T02:08:04.651Z,96895.50
2023-03-10T02:10:38.074Z,96890.72
2023-03-10T02:13:10.971Z,96902.16
2023-03-10T02:15:43.828Z,96900.53
2023-03-10T02:18:18.491Z,96883.13
2023-03-10T02:21:02.078Z,96881.75
2023-03-10T02:23:51.346Z,96883.19
2023-03-10T02:26:36.002Z,96876.06
2023-03-10T02:29:15.351Z,96869.13
2023-03-10T02:31:49.903Z,96866.91
2023-03-10T02:34:23.592Z,96856.72
2023-03-10T02:36:56.964Z,96857.19
2023-03-10T02:39:29.772Z,96845.75
2023-03-10T02:42:04.445Z,96839.81
2023-03-10T02:44:40.557Z,96838.91
2023-03-10T02:47:14.281Z,96834.84
2023-03-10T02:49:47.917Z,96835.63
2023-03-10T02:52:28.073Z,96837.09
2023-03-10T02:55:01.191Z,96828.94
2023-03-10T02:57:34.197Z,96829.59
2023-03-10T03:00:11.550Z,96824.50
2023-03-10T03:02:44.456Z,96812.22
2023-03-10T03:05:18.368Z,96814.28
2023-03-10T03:07:51.472Z,96812.50
2023-03-10T03:10:24.753Z,96814.38
2023-03-10T03:12:57.936Z,96813.44
2023-03-10T03:15:33.153Z,96814.69
2023-03-10T03:18:06.593Z,96807.31
2023-03-10T03:20:41.753Z,96802.09
2023-03-10T03:23:17.306Z,96812.28
2023-03-10T03:25:50.472Z,96808.81
2023-03-10T03:28:25.820Z,96805.63
2023-03-10T03:31:01.985Z,96811.44
2023-03-10T03:33:36.376Z,96811.72
2023-03-10T03:36:10.248Z,96799.41
2023-03-10T03:38:43.725Z,96807.19
2023-03-10T03:41:17.034Z,96808.06
2023-03-10T03:43:49.888Z,96812.50
2023-03-10T03:46:24.308Z,96807.88
2023-03-10T03:48:57.414Z,96802.69
2023-03-10T03:51:30.667Z,96802.59
2023-03-10T03:54:04.561Z,96802.41
2023-03-10T03:56:40.878Z,96801.25
2023-03-10T03:59:16.034Z,96795.69
2023-03-10T04:01:51.074Z,96801.47
2023-03-10T04:04:24.254Z,96799.34
2023-03-10T04:06:58.122Z,96792.44
2023-03-10T04:09:31.320Z,96798.00
2023-03-10T04:12:04.422Z,96790.09
2023-03-10T04:14:38.498Z,96795.00
2023-03-10T04:17:13.094Z,96786.56
2023-03-10T04:19:54.080Z,96793.75
2023-03-10T04:22:30.456Z,96779.66
2023-03-10T04:25:04.368Z,96783.28
2023-03-10T04:27:37.478Z,96791.16
2023-03-10T04:30:14.708Z,96780.69
2023-03-10T04:32:52.850Z,96780.00
2023-03-10T04:35:29.226Z,96780.50
2023-03-10T04:38:04.048Z,96779.94
2023-03-10T04:40:37.587Z,96782.78
2023-03-10T04:43:10.912Z,96775.22
2023-03-10T04:45:44.170Z,96778.59
2023-03-10T04:48:18.484Z,96771.72
2023-03-10T04:50:56.738Z,96781.75
2023-03-10T04:53:32.592Z,96773.97
2023-03-10T04:56:08.798Z,96781.53
2023-03-10T04:58:43.604Z,96772.50
2023-03-10T05:01:17.307Z,96782.69
2023-03-10T05:03:59.149Z,96773.56
2023-03-10T05:06:32.775Z,96777.69
2023-03-10T05:09:15.372Z,96781.44
2023-03-10T05:11:49.033Z,96785.13
2023-03-10T05:14:22.172Z,96772.16
2023-03-10T05:16:55.025Z,96774.44
2023-03-10T05:19:29.657Z,96770.88
2023-03-10T05:22:07.113Z,96770.78
2023-03-10T05:24:41.729Z,96763.41
2023-03-10T05:27:15.136Z,96768.19
2023-03-10T05:29:50.143Z,96764.53
2023-03-10T05:32:27.575Z,96768.59
2023-03-10T05:35:02.509Z,96761.47
2023-03-10T05:37:39.399Z,96767.31
2023-03-10T05:40:16.028Z,96754.94
2023-03-10T05:42:51.630Z,96748.41
2023-03-10T05:45:26.563Z,96754.38
2023-03-10T05:47:59.614Z,96754.56
2023-03-10T05:50:34.214Z,96747.75
2023-03-10T05:53:08.065Z,96756.84
2023-03-10T05:55:40.950Z,96749.25
2023-03-10T05:58:13.831Z,96741.00
2023-03-10T06:00:47.064Z,96741.28
2023-03-10T06:03:20.201Z,96738.13
2023-03-10T06:05:54.488Z,96736.28
2023-03-10T06:08:28.846Z,96743.69
2023-03-10T06:11:01.893Z,96747.72
2023-03-10T06:13:34.709Z,96744.25
2023-03-10T06:16:12.386Z,96744.84
2023-03-10T06:18:45.776Z,96735.41
2023-03-10T06:21:20.051Z,96745.88
2023-03-10T06:23:54.333Z,96739.75
2023-03-10T06:26:27.796Z,96745.03
2023-03-10T06:29:00.572Z,96733.22
2023-03-10T06:31:33.646Z,96735.34
2023-03-10T06:34:06.568Z,96739.38
2023-03-10T06:36:41.653Z,96739.66
2023-03-10T06:39:14.592Z,96736.66
2023-03-10T06:41:47.603Z,96733.69
2023-03-10T06:44:20.637Z,96718.13
2023-03-10T06:46:53.629Z,96728.59
2023-03-10T06:49:30.631Z,96731.78
2023-03-10T06:52:05.253Z,96731.69
2023-03-10T06:54:38.255Z,96736.38
2023-03-10T06:57:11.160Z,96737.72
2023-03-10T06:59:44.125Z,96736.25
2023-03-10T07:02:17.041Z,96730.91
2023-03-10T07:04:50.016Z,96731.88
2023-03-10T07:07:24.480Z,96736.34
2023-03-10T07:09:57.802Z,96727.69
2023-03-10T07:12:30.824Z,96731.03
2023-03-10T07:15:04.021Z,96731.00
2023-03-10T07:17:36.997Z,96727.22
2023-03-10T07:20:11.455Z,96720.56
2023-03-10T07:22:46.012Z,96722.41
2023-03-10T07:25:19.091Z,96714.63
2023-03-10T07:27:51.972Z,96712.22
2023-03-10T07:30:24.808Z,96712.91
2023-03-10T07:32:57.644Z,96709.69
2023-03-10T07:35:30.582Z,96703.06
2023-03-10T07:38:05.621Z,96715.88
2023-03-10T07:40:40.318Z,96719.38
2023-03-10T07:43:13.256Z,96712.06
2023-03-10T07:45:46.300Z,96718.41
2023-03-10T07:48:19.167Z,96715.00
2023-03-10T07:50:57.825Z,96721.97
2023-03-10T07:53:33.222Z,96721.91
2023-03-10T07:56:06.778Z,96716.69
2023-03-10T07:58:40.751Z,96723.81
2023-03-10T08:01:16.500Z,96711.00
2023-03-10T08:03:50.006Z,96714.84
2023-03-10T08:06:25.294Z,96713.88
2023-03-10T08:08:59.485Z,96712.41
2023-03-10T08:11:32.420Z,96704.25
2023-03-10T08:14:05.285Z,96712.00
2023-03-10T08:16:39.172Z,96708.00
2023-03-10T08:19:12.132Z,96703.13
2023-03-10T08:21:45.113Z,96714.78
2023-03-10T08:24:19.314Z,96710.38
2023-03-10T08:26:52.351Z,96705.34
2023-03-10T08:29:26.361Z,96709.22
2023-03-10T08:31:59.349Z,96709.22
2023-03-10T08:34:33.893Z,96710.97
2023-03-10T08:37:06.994Z,96726.28
2023-03-10T08:39:41.490Z,96721.56
2023-03-10T08:42:15.153Z,96722.09
2023-03-10T08:44:48.026Z,96721.63
2023-03-10T08:47:20.743Z,96716.41
2023-03-10T08:49:53.613Z,96710.56
2023-03-10T08:52:26.422Z,96717.50
2023-03-10T08:55:00.713Z,96706.53
2023-03-10T08:57:33.978Z,96710.13
2023-03-10T09:00:08.789Z,96715.59
2023-03-10T09:02:41.754Z,96713.06
2023-03-10T09:05:14.553Z,96714.84
2023-03-10T09:07:47.449Z,96720.53
2023-03-10T09:10:22.149Z,96719.84
2023-03-10T09:13:11.078Z,96712.75
2023-03-10T09:15:45.933Z,96690.75
2023-03-10T09:18:18.681Z,96711.72
2023-03-10T09:20:52.090Z,96714.63
2023-03-10T09:23:25.025Z,96700.16
2023-03-10T09:25:59.791Z,96706.06
2023-03-10T09:28:32.793Z,96700.94
2023-03-10T09:31:06.705Z,96703.69
2023-03-10T09:33:39.637Z,96723.94
2023-03-10T09:36:12.558Z,96835.25
2023-03-10T09:38:45.570Z,96825.34
2023-03-10T09:41:38.710Z,96809.72
2023-03-10T09:44:25.108Z,96800.22
2023-03-10T09:47:20.063Z,96789.50
2023-03-10T09:50:04.407Z,96775.75
2023-03-10T09:52:45.639Z,96767.13
2023-03-10T09:55:22.873Z,96759.06
2023-03-10T09:57:58.224Z,96754.91
2023-03-10T10:00:36.401Z,96742.03
2023-03-10T10:03:18.344Z,96733.38
2023-03-10T10:05:54.552Z,96750.94
2023-03-10T10:08:29.371Z,96756.47
2023-03-10T10:11:03.989Z,96758.81
2023-03-10T10:13:40.513Z,96752.25
2023-03-10T10:16:34.225Z,96760.56
2023-03-10T10:19:16.349Z,96766.34
2023-03-10T10:21:57.521Z,96760.16
2023-03-10T10:24:30.489Z,96775.00
2023-03-10T10:27:03.313Z,96769.00
2023-03-10T10:29:42.356Z,96774.59
2023-03-10T10:32:16.625Z,96777.09
2023-03-10T10:34:49.512Z,96779.13
2023-03-10T10:37:27.212Z,96774.03
2023-03-10T10:40:01.283Z,96765.81
2023-03-10T10:42:35.621Z,96772.22
2023-03-10T10:45:26.392Z,96757.31
2023-03-10T10:47:59.388Z,96760.09
2023-03-10T10:50:33.186Z,96752.38
2023-03-10T10:53:24.231Z,96750.31
2023-03-10T10:56:04.418Z,96753.22
2023-03-10T10:58:38.987Z,96761.41
2023-03-10T11:01:14.886Z,96754.44
2023-03-10T11:03:49.892Z,96765.09
2023-03-10T11:06:27.621Z,96769.00
2023-03-10T11:09:07.877Z,96758.63
2023-03-10T11:11:51.790Z,96758.84
2023-03-10T11:14:39.748Z,96760.88
2023-03-10T11:17:20.202Z,96770.78
2023-03-10T11:19:57.220Z,96769.38
2023-03-10T11:22:38.830Z,96755.34
2023-03-10T11:25:24.668Z,96766.59
2023-03-10T11:28:22.106Z,96759.69
2023-03-10T11:31:04.178Z,96758.81
2023-03-10T11:33:46.530Z,96748.75
2023-03-10T11:36:38.471Z,96748.38
2023-03-10T11:39:22.706Z,96750.47
2023-03-10T11:42:03.871Z,96759.13
2023-03-10T11:44:40.137Z,96748.63
2023-03-10T11:47:22.788Z,96749.63
2023-03-10T11:50:06.040Z,96747.66
2023-03-10T11:52:39.386Z,96743.19
2023-03-10T11:55:18.878Z,96740.13
2023-03-10T11:57:58.454Z,96739.34
2023-03-10T12:00:35.759Z,96743.63
2023-03-10T12:03:18.081Z,96735.66
2023-03-10T12:05:56.703Z,96741.50
2023-03-10T12:08:33.596Z,96748.91
2023-03-10T12:11:13.113Z,96735.09
2023-03-10T12:13:49.262Z,96732.56
2023-03-10T12:16:25.692Z,96730.81
2023-03-10T12:18:59.071Z,96733.34
2023-03-10T12:21:34.556Z,96725.03
2023-03-10T12:24:45.114Z,96726.97
2023-03-10T12:27:17.967Z,96724.94
2023-03-10T12:29:51.124Z,96712.75
2023-03-10T12:32:47.231Z,96709.28
2023-03-10T12:35:45.959Z,96710.63
2023-03-10T12:38:47.382Z,96708.34
2023-03-10T12:41:48.730Z,96723.41
2023-03-10T12:44:43.142Z,96736.59
2023-03-10T12:47:31.920Z,96725.53
2023-03-10T12:50:23.077Z,96722.59
2023-03-10T12:53:04.821Z,96724.09
2023-03-10T12:55:43.583Z,96716.19
2023-03-10T12:58:21.760Z,96724.03
2023-03-10T13:00:59.349Z,96715.03
2023-03-10T13:03:38.186Z,96713.44
2023-03-10T13:06:22.701Z,96721.06
2023-03-10T13:08:59.930Z,96711.50
2023-03-10T13:11:38.068Z,96703.19
2023-03-10T13:14:14.434Z,96699.63
2023-03-10T13:16:54.728Z,96711.13
2023-03-10T13:19:30.507Z,96704.16
2023-03-10T13:22:04.970Z,96686.94
2023-03-10T13:24:38.502Z,96696.78
2023-03-10T13:27:17.115Z,96694.66
2023-03-10T13:29:55.877Z,96687.75
2023-03-10T13:32:30.560Z,96694.28
2023-03-10T13:35:15.768Z,96698.19
2023-03-10T13:38:04.944Z,96707.88
2023-03-10T13:40:40.272Z,96701.47
2023-03-10T13:43:36.000Z,96699.03
2023-03-10T13:46:17.644Z,96709.06
2023-03-10T13:48:51.165Z,96709.53
2023-03-10T13:51:25.670Z,96710.81
2023-03-10T13:54:12.898Z,96706.63
2023-03-10T13:56:46.949Z,96707.41
2023-03-10T13:59:24.882Z,96701.75
2023-03-10T14:02:00.357Z,96707.81
2023-03-10T14:04:42.127Z,96698.97
2023-03-10T14:07:18.440Z,96700.78
2023-03-10T14:10:13.633Z,96711.59
2023-03-10T14:12:48.401Z,96713.69
2023-03-10T14:15:29.381Z,96709.34
2023-03-10T14:18:19.526Z,96694.84
2023-03-10T14:20:53.240Z,96709.47
2023-03-10T14:23:29.350Z,96710.19
2023-03-10T14:26:02.601Z,96708.69
2023-03-10T14:28:35.464Z,96707.59
2023-03-10T14:31:21.457Z,96699.75
2023-03-10T14:33:54.385Z,96707.66
2023-03-10T14:36:27.468Z,96681.19
2023-03-10T14:39:00.592Z,96701.50
2023-03-10T14:41:34.007Z,96710.72
2023-03-10T14:44:07.140Z,96708.34
2023-03-10T14:46:42.157Z,96701.91
2023-03-10T14:49:17.357Z,96706.03
2023-03-10T14:51:50.465Z,96708.63
2023-03-10T14:54:25.553Z,96701.63
2023-03-10T14:56:59.949Z,96700.97
2023-03-10T14:59:32.835Z,96694.06
2023-03-10T15:02:20.079Z,96695.94
2023-03-10T15:04:53.154Z,96693.75
2023-03-10T15:07:26.072Z,96693.44
2023-03-10T15:10:10.612Z,96691.84
2023-03-10T15:12:45.465Z,96687.69
2023-03-10T15:15:21.889Z,96699.19
2023-03-10T15:17:56.510Z,96689.56
2023-03-10T15:20:29.803Z,96706.88
2023-03-10T15:23:02.682Z,96710.19
2023-03-10T15:25:36.647Z,96711.94
2023-03-10T15:28:13.126Z,96704.16
2023-03-10T15:30:46.508Z,96715.09
2023-03-10T15:33:22.989Z,96715.28
2023-03-10T15:35:56.336Z,96714.81
2023-03-10T15:38:29.778Z,96711.09
2023-03-10T15:41:05.919Z,96712.81
2023-03-10T15:43:39.922Z,96719.59
2023-03-10T15:46:13.731Z,96719.69
2023-03-10T15:48:48.673Z,96712.22
2023-03-10T15:51:23.304Z,96721.09
2023-03-10T15:53:57.050Z,96699.91
2023-03-10T15:56:30.805Z,96709.50
2023-03-10T15:59:05.523Z,96713.06
2023-03-10T16:01:38.927Z,96734.19
2023-03-10T16:04:14.715Z,96714.16
2023-03-10T16:06:48.764Z,96713.94
2023-03-10T16:09:23.097Z,96725.41
2023-03-10T16:11:56.878Z,96724.22
2023-03-10T16:14:30.911Z,96748.97
2023-03-10T16:17:03.741Z,96742.34
2023-03-10T16:19:38.881Z,96748.75
2023-03-10T16:22:12.587Z,96753.91
2023-03-10T16:24:46.333Z,96756.28
2023-03-10T16:27:23.394Z,96771.53
2023-03-10T16:29:58.221Z,96768.59
2023-03-10T16:32:31.435Z,96765.97
2023-03-10T16:35:06.819Z,96786.09
2023-03-10T16:37:39.951Z,96793.13
2023-03-10T16:40:14.021Z,96783.25
2023-03-10T16:42:47.381Z,96797.50
2023-03-10T16:45:20.576Z,96800.63
2023-03-10T16:47:57.093Z,96807.94
2023-03-10T16:50:35.674Z,96809.47
2023-03-10T16:53:09.104Z,96835.63
2023-03-10T16:55:42.234Z,96825.75
2023-03-10T16:58:15.284Z,96834.59
2023-03-10T17:00:48.198Z,96836.91
2023-03-10T17:03:21.376Z,96841.53
2023-03-10T17:05:56.078Z,96836.63
2023-03-10T17:08:29.702Z,96854.84
2023-03-10T17:11:02.735Z,96881.22
2023-03-10T17:13:36.713Z,96867.97
2023-03-10T17:16:12.568Z,96874.75
2023-03-10T17:18:45.802Z,96879.84
2023-03-10T17:21:22.547Z,96875.38
2023-03-10T17:23:56.579Z,96903.88
2023-03-10T17:26:30.152Z,96889.38
2023-03-10T17:29:03.471Z,96899.28
2023-03-10T17:31:36.890Z,96915.94
2023-03-10T17:34:13.207Z,96903.56
2023-03-10T17:36:47.806Z,96892.63
2023-03-10T17:39:22.619Z,96883.22
2023-03-10T17:41:56.176Z,96903.25
2023-03-10T17:44:29.442Z,96882.75
2023-03-10T17:47:02.730Z,96893.72
2023-03-10T17:49:35.781Z,96909.28
2023-03-10T17:52:10.174Z,96906.66
2023-03-10T17:54:43.556Z,96909.13
2023-03-10T17:57:16.542Z,96904.22
2023-03-10T17:59:51.019Z,96915.00
2023-03-10T18:02:24.069Z,96905.44
2023-03-10T18:04:56.963Z,96918.88
2023-03-10T18:07:32.431Z,96921.34
2023-03-10T18:10:06.764Z,96927.81
2023-03-10T18:12:39.850Z,96920.38
2023-03-10T18:15:13.790Z,96916.88
2023-03-10T18:17:47.338Z,96915.78
2023-03-10T18:20:20.354Z,96914.84
2023-03-10T18:22:55.129Z,96896.03
2023-03-10T18:25:28.058Z,96922.09
2023-03-10T18:28:00.899Z,96909.59
2023-03-10T18:30:34.295Z,96902.81
2023-03-10T18:33:07.840Z,96899.75
2023-03-10T18:35:41.932Z,96893.84
2023-03-10T18:38:17.994Z,96883.69
2023-03-10T18:40:58.674Z,96886.91
2023-03-10T18:43:32.393Z,96894.31
2023-03-10T18:46:07.040Z,96892.03
2023-03-10T18:48:39.948Z,96901.41
2023-03-10T18:51:13.877Z,96879.50
2023-03-10T18:53:48.826Z,96890.00
2023-03-10T18:56:22.440Z,96908.00
2023-03-10T18:58:55.972Z,96897.84
2023-03-10T19:01:28.949Z,96891.06
2023-03-10T19:04:02.470Z,96883.28
2023-03-10T19:06:36.827Z,96910.53
2023-03-10T19:09:11.069Z,96904.81
2023-03-10T19:11:44.721Z,96922.09
2023-03-10T19:14:18.046Z,96920.25
2023-03-10T19:16:51.347Z,96928.56
2023-03-10T19:19:24.311Z,96912.22
2023-03-10T19:21:57.394Z,96918.06
2023-03-10T19:24:31.658Z,96914.94
2023-03-10T19:27:05.166Z,96919.34
2023-03-10T19:29:38.149Z,96931.03
2023-03-10T19:32:10.949Z,96936.31
2023-03-10T19:34:43.783Z,96946.88
2023-03-10T19:37:16.817Z,96931.63
2023-03-10T19:39:51.143Z,96920.22
2023-03-10T19:42:23.974Z,96936.41
2023-03-10T19:44:57.164Z,96941.91
2023-03-10T19:47:32.164Z,96936.50
2023-03-10T19:50:06.829Z,96952.50
2023-03-10T19:52:44.191Z,96956.19
2023-03-10T19:55:23.413Z,96956.78
2023-03-10T19:57:57.261Z,96949.69
2023-03-10T20:00:35.564Z,96938.47
2023-03-10T20:03:08.712Z,96954.47
2023-03-10T20:05:42.297Z,96958.44
2023-03-10T20:08:15.114Z,96989.06
2023-03-10T20:10:49.666Z,97014.00
2023-03-10T20:13:23.026Z,97054.50
2023-03-10T20:15:56.365Z,97061.38
2023-03-10T20:18:29.288Z,97067.84
2023-03-10T20:21:02.870Z,97085.69
2023-03-10T20:23:36.248Z,97082.78
2023-03-10T20:26:11.330Z,97089.19
2023-03-10T20:28:45.029Z,97099.03
2023-03-10T20:31:19.606Z,97101.66
2023-03-10T20:33:53.461Z,97107.19
2023-03-10T20:36:26.364Z,97115.03
2023-03-10T20:38:59.507Z,97135.56
2023-03-10T20:41:33.743Z,97144.38
2023-03-10T20:44:09.562Z,97171.69
2023-03-10T20:46:42.965Z,97201.41
2023-03-10T20:49:15.956Z,97217.97
2023-03-10T20:51:49.070Z,97210.09
2023-03-10T20:54:22.308Z,97228.50
2023-03-10T20:56:56.521Z,97252.31
2023-03-10T20:59:29.400Z,97271.66
2023-03-10T21:02:02.469Z,97293.50
2023-03-10T21:04:35.455Z,97286.16
2023-03-10T21:07:08.856Z,97302.44
2023-03-10T21:09:42.174Z,97311.41
2023-03-10T21:12:18.723Z,97356.53
2023-03-10T21:14:51.665Z,97370.81
2023-03-10T21:17:25.177Z,97377.06
2023-03-10T21:19:58.295Z,97388.25
2023-03-10T21:22:35.288Z,97386.25
2023-03-10T21:25:12.805Z,97409.59
2023-03-10T21:27:51.241Z,97424.97
2023-03-10T21:30:24.547Z,97431.38
2023-03-10T21:32:57.896Z,97441.69
2023-03-10T21:35:34.084Z,97470.47
2023-03-10T21:38:07.174Z,97481.66
2023-03-10T21:40:40.230Z,97473.06
2023-03-10T21:43:15.062Z,97501.88
2023-03-10T21:45:47.911Z,97519.13
2023-03-10T21:48:20.874Z,97518.81
2023-03-10T21:50:54.097Z,97527.53
2023-03-10T21:53:27.236Z,97537.78
2023-03-10T21:56:00.678Z,97550.78
2023-03-10T21:58:36.207Z,97549.75
2023-03-10T22:01:09.478Z,97567.88
2023-03-10T22:03:44.535Z,97558.03
2023-03-10T22:06:17.629Z,97573.38
2023-03-10T22:08:50.621Z,97575.03
2023-03-10T22:11:23.536Z,97562.81
2023-03-10T22:13:57.728Z,97564.00
2023-03-10T22:16:30.759Z,97570.22
2023-03-10T22:19:03.651Z,97581.72
2023-03-10T22:21:36.608Z,97577.38
2023-03-10T22:24:09.653Z,97588.78
2023-03-10T22:26:42.469Z,97591.16
2023-03-10T22:29:16.702Z,97595.13
2023-03-10T22:31:53.064Z,97597.09
2023-03-10T22:34:26.085Z,97601.88
2023-03-10T22:36:59.029Z,97610.06
2023-03-10T22:39:31.913Z,97615.25
2023-03-10T22:42:05.188Z,97616.75
2023-03-10T22:44:39.849Z,97625.03
2023-03-10T22:47:12.634Z,97624.78
2023-03-10T22:49:46.503Z,97636.59
2023-03-10T22:52:19.268Z,97639.34
2023-03-10T22:54:52.136Z,97645.22
2023-03-10T22:57:25.228Z,97662.16
2023-03-10T22:59:59.743Z,97655.34
2023-03-10T23:02:32.869Z,97672.00
2023-03-10T23:05:07.094Z,97664.88
2023-03-10T23:07:40.631Z,97673.59
2023-03-10T23:10:18.267Z,97675.19
2023-03-10T23:12:51.868Z,97690.50
2023-03-10T23:15:28.634Z,97684.66
2023-03-10T23:18:01.982Z,97698.47
2023-03-10T23:20:37.517Z,97705.56
2023-03-10T23:23:14.542Z,97719.34
2023-03-10T23:25:50.952Z,97733.59
2023-03-10T23:28:24.054Z,97749.31
2023-03-10T23:30:59.793Z,97746.56
2023-03-10T23:33:32.655Z,97746.94
2023-03-10T23:36:06.757Z,97752.97
2023-03-10T23:38:40.809Z,97750.56
2023-03-10T23:41:14.361Z,97743.53
2023-03-10T23:43:47.209Z,97766.78
2023-03-10T23:46:21.949Z,97780.97
2023-03-10T23:48:55.053Z,97784.16
2023-03-10T23:51:28.929Z,97782.56
2023-03-10T23:54:01.689Z,97779.03
2023-03-10T23:56:34.742Z,97806.22
2023-03-10T23:59:08.800Z,97805.06
